Time;durP1;ratioP1;P1;durP2;ratioP2;P2;SDS_P1;SDS_P2;PMS_P1;PMS_P2;Temp;Humidity;BMP_temperature;BMP_pressure;BME280_temperature;BME280_humidity;BME280_pressure;Samples;Min_cycle;Max_cycle;Signal;HPM_P1;HPM_P2
2023/01/20 00:01:17;;;;;;;297.48;70.32;;;;;;;;;;5075838;28;20194;-74
2023/01/20 00:03:46;;;;;;;329.40;120.32;;;;;;;;;;5076752;28;20209;-73
2023/01/20 00:06:14;;;;;;;277.90;72.80;;;;;;;;;;5077074;28;20331;-74
2023/01/20 00:08:42;;;;;;;281.60;67.78;;;;;;;;;;5076524;28;20202;-74
2023/01/20 00:11:10;;;;;;;281.98;68.03;;;;;;;;;;5076231;28;20202;-73
2023/01/20 00:13:40;;;;;;;279.02;70.53;;;;;;;;;;5076488;28;20664;-74
2023/01/20 00:16:08;;;;;;;281.27;112.95;;;;;;;;;;5076528;28;20198;-74
2023/01/20 00:18:36;;;;;;;281.73;66.45;;;;;;;;;;5076422;28;20202;-74
2023/01/20 00:21:04;;;;;;;289.38;102.22;;;;;;;;;;5076262;28;20263;-74
2023/01/20 00:23:32;;;;;;;289.25;79.57;;;;;;;;;;5076947;28;20750;-73
2023/01/20 00:26:00;;;;;;;288.23;68.65;;;;;;;;;;5076035;28;20213;-74
2023/01/20 00:28:27;;;;;;;284.65;66.60;;;;;;;;;;5076424;28;20206;-73
2023/01/20 00:30:57;;;;;;;290.85;69.43;;;;;;;;;;5075689;28;20214;-74
2023/01/20 00:33:25;;;;;;;291.75;69.78;;;;;;;;;;5076500;28;20582;-74
2023/01/20 00:35:52;;;;;;;290.35;72.65;;;;;;;;;;5076654;28;20209;-73
2023/01/20 00:38:20;;;;;;;276.08;67.63;;;;;;;;;;5076442;28;20206;-74
2023/01/20 00:40:54;;;;;;;293.38;83.07;;;;;;;;;;5076914;28;20264;-73
2023/01/20 00:43:22;;;;;;;286.83;84.20;;;;;;;;;;5076350;28;20297;-73
2023/01/20 00:45:50;;;;;;;295.90;103.43;;;;;;;;;;5076714;28;20206;-73
2023/01/20 00:48:19;;;;;;;288.98;69.88;;;;;;;;;;5076483;28;20210;-73
2023/01/20 00:50:46;;;;;;;277.83;67.00;;;;;;;;;;5076740;28;20222;-73
2023/01/20 00:53:14;;;;;;;282.70;67.35;;;;;;;;;;5075793;28;20299;-73
2023/01/20 00:55:41;;;;;;;289.75;86.13;;;;;;;;;;5076636;28;20206;-74
2023/01/20 00:58:10;;;;;;;277.42;100.20;;;;;;;;;;5076757;28;20212;-74
2023/01/20 01:00:37;;;;;;;277.95;66.60;;;;;;;;;;5076345;28;20198;-73
2023/01/20 01:03:05;;;;;;;288.88;70.13;;;;;;;;;;5076645;28;20632;-73
2023/01/20 01:05:34;;;;;;;295.35;69.45;;;;;;;;;;5076330;28;20203;-73
2023/01/20 01:08:03;;;;;;;272.27;68.35;;;;;;;;;;5076170;28;20202;-74
2023/01/20 01:10:30;;;;;;;316.33;114.15;;;;;;;;;;5076403;28;20226;-73
2023/01/20 01:13:02;;;;;;;296.98;89.90;;;;;;;;;;5079964;28;20297;-73
2023/01/20 01:15:30;;;;;;;296.08;102.57;;;;;;;;;;5080859;28;20205;-73
2023/01/20 01:17:58;;;;;;;298.85;71.20;;;;;;;;;;5079720;28;20198;-74
2023/01/20 01:20:29;;;;;;;301.70;70.80;;;;;;;;;;5080394;28;20213;-73
2023/01/20 01:22:58;;;;;;;277.38;69.97;;;;;;;;;;5079193;28;20334;-73
2023/01/20 01:25:28;;;;;;;288.35;68.72;;;;;;;;;;5080420;28;20198;-73
2023/01/20 01:27:55;;;;;;;287.30;66.32;;;;;;;;;;5079685;28;20202;-73
2023/01/20 01:30:23;;;;;;;300.08;71.80;;;;;;;;;;5079221;28;20226;-73
2023/01/20 01:32:51;;;;;;;289.13;69.35;;;;;;;;;;5079427;28;20344;-73
2023/01/20 01:35:19;;;;;;;300.80;72.53;;;;;;;;;;5079842;28;20202;-73
2023/01/20 01:37:46;;;;;;;301.23;71.20;;;;;;;;;;5093657;28;20592;-73
2023/01/20 01:40:17;;;;;;;294.25;70.03;;;;;;;;;;5099498;28;20217;-73
2023/01/20 01:42:44;;;;;;;285.25;68.05;;;;;;;;;;5100646;28;20202;-73
2023/01/20 01:45:22;;;;;;;292.98;67.80;;;;;;;;;;5099762;28;20263;-73
2023/01/20 01:47:54;;;;;;;298.27;70.18;;;;;;;;;;5100578;28;20213;-73
2023/01/20 01:50:24;;;;;;;298.42;69.90;;;;;;;;;;5100370;28;20222;-73
2023/01/20 01:52:53;;;;;;;286.45;68.63;;;;;;;;;;5099551;28;20212;-73
2023/01/20 01:55:24;;;;;;;286.90;69.28;;;;;;;;;;5099129;28;20213;-73
2023/01/20 01:57:52;;;;;;;315.83;72.03;;;;;;;;;;5099350;28;20212;-73
2023/01/20 02:00:23;;;;;;;294.15;70.10;;;;;;;;;;5099376;28;20632;-73
2023/01/20 02:02:54;;;;;;;295.02;69.85;;;;;;;;;;5099667;28;20232;-73
2023/01/20 02:05:22;;;;;;;283.15;67.05;;;;;;;;;;5099253;28;20216;-73
2023/01/20 02:07:53;;;;;;;300.55;70.80;;;;;;;;;;5099091;28;20224;-73
2023/01/20 02:10:21;;;;;;;305.80;75.38;;;;;;;;;;5098628;28;20504;-73
2023/01/20 02:12:51;;;;;;;306.20;70.32;;;;;;;;;;5097946;28;20198;-73
2023/01/20 02:15:21;;;;;;;295.15;70.57;;;;;;;;;;5099191;28;20240;-72
2023/01/20 02:17:54;;;;;;;301.23;71.80;;;;;;;;;;5099476;28;20213;-73
2023/01/20 02:20:49;;;;;;;300.92;75.00;;;;;;;;;;5098471;28;20225;-73
2023/01/20 02:23:24;;;;;;;297.63;71.82;;;;;;;;;;5051369;28;20270;-73
2023/01/20 02:26:08;;;;;;;292.73;72.10;;;;;;;;;;5098239;28;20209;-73
2023/01/20 02:28:59;;;;;;;297.60;67.93;;;;;;;;;;5098116;28;20305;-73
2023/01/20 02:31:45;;;;;;;280.77;65.65;;;;;;;;;;5078114;28;20659;-73
2023/01/20 02:34:16;;;;;;;287.30;66.95;;;;;;;;;;5099135;28;20201;-73
2023/01/20 02:36:46;;;;;;;273.98;66.18;;;;;;;;;;5098416;28;20205;-73
2023/01/20 02:39:16;;;;;;;281.48;66.35;;;;;;;;;;5099180;28;20205;-73
2023/01/20 02:41:52;;;;;;;289.83;74.80;;;;;;;;;;5099052;28;20197;-73
2023/01/20 02:44:23;;;;;;;290.85;69.00;;;;;;;;;;5098315;28;20596;-73
2023/01/20 02:46:58;;;;;;;277.10;65.80;;;;;;;;;;5098455;28;20318;-73
2023/01/20 02:49:30;;;;;;;293.02;69.55;;;;;;;;;;5097882;28;20209;-73
2023/01/20 02:52:00;;;;;;;297.70;69.75;;;;;;;;;;5098107;28;20193;-73
2023/01/20 02:54:29;;;;;;;292.13;71.68;;;;;;;;;;5098309;28;20767;-73
2023/01/20 02:56:59;;;;;;;288.10;67.80;;;;;;;;;;5098382;28;20654;-73
2023/01/20 02:59:28;;;;;;;290.20;67.88;;;;;;;;;;5098037;28;20197;-73
2023/01/20 03:02:04;;;;;;;283.55;66.43;;;;;;;;;;5098666;28;20534;-73
2023/01/20 03:04:36;;;;;;;287.67;65.43;;;;;;;;;;5098684;28;20201;-73
2023/01/20 03:07:04;;;;;;;290.30;69.38;;;;;;;;;;5098377;28;20197;-73
2023/01/20 03:09:36;;;;;;;286.08;65.97;;;;;;;;;;5098591;28;20308;-73
2023/01/20 03:12:07;;;;;;;281.08;67.55;;;;;;;;;;5098104;28;20200;-73
2023/01/20 03:14:35;;;;;;;274.77;63.53;;;;;;;;;;5098229;28;20227;-73
2023/01/20 03:17:03;;;;;;;282.33;67.70;;;;;;;;;;5098172;28;20594;-73
2023/01/20 03:19:30;;;;;;;278.95;64.13;;;;;;;;;;5097808;28;20691;-73
2023/01/20 03:22:01;;;;;;;288.13;68.95;;;;;;;;;;5098371;28;20212;-73
2023/01/20 03:24:29;;;;;;;275.58;63.92;;;;;;;;;;5097552;28;20202;-73
2023/01/20 03:26:57;;;;;;;286.27;68.63;;;;;;;;;;5098171;28;20209;-73
2023/01/20 03:29:25;;;;;;;289.65;67.35;;;;;;;;;;5098203;28;20202;-73
2023/01/20 03:31:55;;;;;;;291.63;68.25;;;;;;;;;;5097318;28;20346;-73
2023/01/20 03:34:24;;;;;;;284.15;66.72;;;;;;;;;;5098242;28;20210;-73
2023/01/20 03:36:53;;;;;;;286.15;68.50;;;;;;;;;;5097436;28;20205;-73
2023/01/20 03:39:22;;;;;;;283.30;65.50;;;;;;;;;;5097765;28;20251;-74
2023/01/20 03:41:54;;;;;;;273.58;64.10;;;;;;;;;;5097573;28;20243;-74
2023/01/20 03:44:24;;;;;;;274.08;65.80;;;;;;;;;;5097058;28;20307;-73
2023/01/20 03:46:53;;;;;;;287.80;67.63;;;;;;;;;;5097539;28;20197;-74
2023/01/20 03:49:31;;;;;;;290.05;64.20;;;;;;;;;;5097367;28;20481;-74
2023/01/20 03:52:03;;;;;;;287.35;67.10;;;;;;;;;;5096900;28;20639;-74
2023/01/20 03:54:35;;;;;;;289.38;69.05;;;;;;;;;;5097652;28;20212;-73
2023/01/20 03:57:04;;;;;;;296.20;71.82;;;;;;;;;;5096947;28;20202;-74
2023/01/20 03:59:34;;;;;;;284.63;66.07;;;;;;;;;;5097512;28;20209;-74
2023/01/20 04:02:03;;;;;;;292.40;67.20;;;;;;;;;;5096893;28;20202;-74
2023/01/20 04:04:31;;;;;;;280.35;64.38;;;;;;;;;;5097128;28;20232;-73
2023/01/20 04:06:59;;;;;;;275.70;63.95;;;;;;;;;;5096781;28;20232;-74
2023/01/20 04:09:29;;;;;;;291.13;69.05;;;;;;;;;;5096634;28;20201;-74
2023/01/20 04:11:59;;;;;;;288.98;70.32;;;;;;;;;;5096908;28;20221;-72
2023/01/20 04:14:27;;;;;;;306.17;69.22;;;;;;;;;;5096812;28;20204;-73
2023/01/20 04:16:56;;;;;;;299.88;69.28;;;;;;;;;;5096931;28;20589;-73
2023/01/20 04:19:26;;;;;;;306.65;70.45;;;;;;;;;;5096990;28;20255;-73
2023/01/20 04:21:57;;;;;;;282.83;63.85;;;;;;;;;;5096664;28;20464;-73
2023/01/20 04:24:26;;;;;;;301.95;72.25;;;;;;;;;;5097089;28;20211;-73
2023/01/20 04:26:54;;;;;;;278.70;67.45;;;;;;;;;;5096936;28;20202;-73
2023/01/20 04:29:23;;;;;;;296.60;68.15;;;;;;;;;;5096140;28;20209;-73
2023/01/20 04:31:50;;;;;;;293.75;66.38;;;;;;;;;;5096294;28;20229;-73
2023/01/20 04:34:21;;;;;;;288.98;66.60;;;;;;;;;;5096065;28;20208;-73
2023/01/20 04:36:48;;;;;;;289.02;68.20;;;;;;;;;;5096714;28;20216;-73
2023/01/20 04:39:16;;;;;;;285.90;66.40;;;;;;;;;;5095988;28;20202;-73
2023/01/20 04:41:43;;;;;;;292.10;69.82;;;;;;;;;;5095685;28;20593;-74
2023/01/20 04:44:11;;;;;;;291.45;66.68;;;;;;;;;;5096097;28;20467;-74
2023/01/20 04:46:40;;;;;;;279.48;68.30;;;;;;;;;;5095723;28;20262;-74
2023/01/20 04:49:09;;;;;;;275.98;64.05;;;;;;;;;;5096363;28;20251;-73
2023/01/20 04:51:36;;;;;;;287.88;67.43;;;;;;;;;;5096058;28;20240;-73
2023/01/20 04:54:04;;;;;;;272.83;62.00;;;;;;;;;;5096195;28;20215;-73
2023/01/20 04:56:32;;;;;;;284.58;68.28;;;;;;;;;;5095585;28;20206;-73
2023/01/20 04:59:00;;;;;;;280.90;67.35;;;;;;;;;;5096812;28;20555;-73
2023/01/20 05:01:27;;;;;;;274.55;64.60;;;;;;;;;;5096229;28;20197;-73
2023/01/20 05:03:59;;;;;;;279.27;65.47;;;;;;;;;;5095169;28;20593;-73
2023/01/20 05:06:27;;;;;;;287.85;67.15;;;;;;;;;;5096469;28;20201;-73
2023/01/20 05:08:54;;;;;;;292.70;69.20;;;;;;;;;;5096061;28;20209;-73
2023/01/20 05:11:22;;;;;;;292.38;65.82;;;;;;;;;;5096095;28;20538;-73
2023/01/20 05:13:50;;;;;;;276.60;67.35;;;;;;;;;;5095593;28;20600;-74
2023/01/20 05:16:22;;;;;;;295.73;68.38;;;;;;;;;;5096377;28;20194;-74
2023/01/20 05:18:50;;;;;;;290.25;68.70;;;;;;;;;;5095821;28;20193;-73
2023/01/20 05:21:19;;;;;;;275.60;65.55;;;;;;;;;;5094641;28;20201;-74
2023/01/20 05:23:47;;;;;;;294.75;68.72;;;;;;;;;;5095937;28;20198;-74
2023/01/20 05:26:15;;;;;;;287.60;69.20;;;;;;;;;;5094604;28;20193;-73
2023/01/20 05:28:43;;;;;;;296.15;71.35;;;;;;;;;;5096281;28;20197;-74
2023/01/20 05:31:11;;;;;;;300.27;72.05;;;;;;;;;;5095534;28;20221;-73
2023/01/20 05:33:39;;;;;;;294.08;67.75;;;;;;;;;;5095693;28;20243;-73
2023/01/20 05:36:06;;;;;;;284.80;65.35;;;;;;;;;;5096423;28;20236;-73
2023/01/20 05:38:36;;;;;;;293.02;67.18;;;;;;;;;;5096110;28;20202;-73
2023/01/20 05:41:04;;;;;;;273.70;64.32;;;;;;;;;;5096731;28;20201;-73
2023/01/20 05:43:33;;;;;;;297.33;66.30;;;;;;;;;;5082180;28;20206;-73
2023/01/20 05:46:01;;;;;;;290.35;68.95;;;;;;;;;;5075942;28;20198;-73
2023/01/20 05:48:29;;;;;;;287.88;67.60;;;;;;;;;;5075245;28;20225;-73
2023/01/20 05:50:57;;;;;;;287.60;65.55;;;;;;;;;;5075536;28;20637;-73
2023/01/20 05:53:24;;;;;;;297.95;71.93;;;;;;;;;;5074938;28;20195;-73
2023/01/20 05:56:01;;;;;;;308.65;70.28;;;;;;;;;;5075367;28;20195;-73
2023/01/20 05:58:32;;;;;;;293.80;68.15;;;;;;;;;;5076293;28;20202;-73
2023/01/20 06:01:04;;;;;;;295.30;70.15;;;;;;;;;;5079381;28;20206;-73
2023/01/20 06:03:35;;;;;;;278.77;65.40;;;;;;;;;;5079277;28;20255;-73
2023/01/20 06:06:03;;;;;;;283.73;66.80;;;;;;;;;;5083663;28;20198;-73
2023/01/20 06:08:30;;;;;;;290.33;65.95;;;;;;;;;;5086914;28;20198;-73
2023/01/20 06:11:00;;;;;;;294.65;67.20;;;;;;;;;;5098324;28;20594;-72
2023/01/20 06:13:27;;;;;;;292.63;66.03;;;;;;;;;;5098832;28;20663;-73
2023/01/20 06:15:56;;;;;;;287.80;66.88;;;;;;;;;;5098458;28;20536;-73
2023/01/20 06:18:29;;;;;;;289.80;70.88;;;;;;;;;;5097348;28;20605;-73
2023/01/20 06:21:00;;;;;;;288.98;69.28;;;;;;;;;;5098300;28;20694;-73
2023/01/20 06:23:31;;;;;;;282.98;70.35;;;;;;;;;;5096668;28;20201;-72
2023/01/20 06:26:00;;;;;;;282.42;65.75;;;;;;;;;;5097203;28;20205;-73
2023/01/20 06:28:33;;;;;;;288.75;65.95;;;;;;;;;;5097493;28;20578;-73
2023/01/20 06:31:03;;;;;;;288.52;67.25;;;;;;;;;;5096962;28;20221;-73
2023/01/20 06:33:32;;;;;;;297.42;75.53;;;;;;;;;;5097076;28;20605;-73
2023/01/20 06:36:00;;;;;;;294.90;68.90;;;;;;;;;;5097339;28;20329;-74
2023/01/20 06:38:29;;;;;;;306.58;74.15;;;;;;;;;;5096870;28;20255;-74
2023/01/20 06:40:58;;;;;;;289.13;69.28;;;;;;;;;;5096122;28;20208;-72
2023/01/20 06:43:28;;;;;;;313.13;77.13;;;;;;;;;;5097354;28;20292;-72
2023/01/20 06:46:01;;;;;;;290.13;71.15;;;;;;;;;;5096000;28;20304;-72
2023/01/20 06:48:34;;;;;;;307.52;75.38;;;;;;;;;;5099162;28;20627;-73
2023/01/20 06:51:02;;;;;;;298.80;69.18;;;;;;;;;;5093632;28;20225;-73
2023/01/20 06:53:35;;;;;;;297.65;70.63;;;;;;;;;;5095412;28;20194;-73
2023/01/20 06:56:06;;;;;;;298.35;70.57;;;;;;;;;;5095427;28;20202;-74
2023/01/20 06:58:35;;;;;;;285.05;63.75;;;;;;;;;;5095332;28;20202;-74
2023/01/20 07:01:14;;;;;;;297.92;69.85;;;;;;;;;;5096108;28;20228;-73
2023/01/20 07:03:43;;;;;;;302.75;73.30;;;;;;;;;;5095953;28;20205;-74
2023/01/20 07:06:15;;;;;;;293.83;71.03;;;;;;;;;;5096707;28;20481;-75
2023/01/20 07:08:43;;;;;;;298.15;73.28;;;;;;;;;;5096778;28;20202;-73
2023/01/20 07:11:11;;;;;;;297.33;73.72;;;;;;;;;;5096192;28;20744;-74
2023/01/20 07:13:40;;;;;;;280.15;67.63;;;;;;;;;;5095506;28;20280;-74
2023/01/20 07:16:08;;;;;;;288.42;67.88;;;;;;;;;;5096027;28;20202;-74
2023/01/20 07:18:35;;;;;;;312.73;77.47;;;;;;;;;;5095044;28;20212;-74
2023/01/20 07:21:03;;;;;;;294.17;67.43;;;;;;;;;;5085528;28;20227;-74
2023/01/20 07:23:32;;;;;;;292.77;71.72;;;;;;;;;;5075859;28;20285;-74
2023/01/20 07:26:01;;;;;;;297.38;75.15;;;;;;;;;;5079467;28;20190;-74
2023/01/20 07:28:29;;;;;;;297.13;68.60;;;;;;;;;;5093584;28;20578;-74
2023/01/20 07:31:03;;;;;;;296.58;72.90;;;;;;;;;;5096094;28;20198;-74
2023/01/20 07:33:31;;;;;;;300.23;72.07;;;;;;;;;;5096059;28;20204;-74
2023/01/20 07:36:00;;;;;;;304.30;71.63;;;;;;;;;;5096040;28;20202;-74
2023/01/20 07:38:30;;;;;;;298.95;73.18;;;;;;;;;;5096645;28;20223;-74
2023/01/20 07:40:58;;;;;;;311.73;78.45;;;;;;;;;;5095565;28;20225;-74
2023/01/20 07:43:26;;;;;;;304.88;73.00;;;;;;;;;;5095753;28;20194;-74
2023/01/20 07:46:01;;;;;;;295.20;71.03;;;;;;;;;;5089385;28;20204;-74
2023/01/20 07:48:31;;;;;;;292.27;71.20;;;;;;;;;;5093139;28;20208;-74
2023/01/20 07:51:06;;;;;;;295.20;68.22;;;;;;;;;;5094471;28;20647;-73
2023/01/20 07:53:40;;;;;;;294.23;70.38;;;;;;;;;;5087093;28;20229;-73
2023/01/20 07:56:12;;;;;;;321.50;72.75;;;;;;;;;;5074799;28;20224;-72
2023/01/20 07:58:44;;;;;;;300.58;73.18;;;;;;;;;;5074772;28;20285;-74
2023/01/20 08:01:26;;;;;;;324.25;75.15;;;;;;;;;;5081343;28;20234;-72
2023/01/20 08:03:59;;;;;;;288.25;72.63;;;;;;;;;;5077872;28;20197;-74
2023/01/20 08:06:43;;;;;;;300.30;75.10;;;;;;;;;;5085237;28;20198;-74
2023/01/20 08:09:13;;;;;;;302.45;76.15;;;;;;;;;;5093930;28;20205;-74
2023/01/20 08:11:43;;;;;;;298.92;71.30;;;;;;;;;;5089910;28;20660;-74
2023/01/20 08:14:12;;;;;;;283.02;65.30;;;;;;;;;;5094433;28;20198;-74
2023/01/20 08:16:42;;;;;;;304.40;78.47;;;;;;;;;;5092952;28;20208;-74
2023/01/20 08:19:26;;;;;;;297.98;71.03;;;;;;;;;;5095317;28;20201;-74
2023/01/20 08:22:00;;;;;;;286.25;70.78;;;;;;;;;;5091352;28;20293;-74
2023/01/20 08:24:34;;;;;;;290.30;71.78;;;;;;;;;;5089794;28;20213;-74
2023/01/20 08:27:02;;;;;;;297.00;76.25;;;;;;;;;;5087741;28;20206;-73
2023/01/20 08:29:34;;;;;;;298.80;72.60;;;;;;;;;;5081745;28;20206;-74
2023/01/20 08:32:11;;;;;;;305.60;79.05;;;;;;;;;;5093575;28;20229;-73
2023/01/20 08:34:38;;;;;;;291.48;74.97;;;;;;;;;;5094272;28;20208;-73
2023/01/20 08:37:20;;;;;;;301.75;77.25;;;;;;;;;;5094018;28;20204;-74
2023/01/20 08:39:50;;;;;;;290.95;76.07;;;;;;;;;;5095098;28;20209;-74
2023/01/20 08:42:21;;;;;;;302.70;76.30;;;;;;;;;;5075959;28;20194;-74
2023/01/20 08:44:53;;;;;;;318.60;86.03;;;;;;;;;;5094443;28;20511;-73
2023/01/20 08:47:21;;;;;;;298.15;82.10;;;;;;;;;;5091075;28;20292;-73
2023/01/20 08:49:53;;;;;;;299.27;77.65;;;;;;;;;;5093311;28;20248;-73
2023/01/20 08:52:41;;;;;;;295.88;70.70;;;;;;;;;;5092980;28;20288;-73
2023/01/20 08:55:22;;;;;;;286.88;77.00;;;;;;;;;;5082827;28;20194;-74
2023/01/20 08:57:55;;;;;;;295.42;77.88;;;;;;;;;;5090834;28;20498;-73
2023/01/20 09:00:40;;;;;;;310.60;80.45;;;;;;;;;;5093643;28;20241;-73
2023/01/20 09:03:19;;;;;;;281.15;70.07;;;;;;;;;;5093452;28;20585;-73
2023/01/20 09:05:51;;;;;;;310.63;79.20;;;;;;;;;;5081935;28;20208;-73
2023/01/20 09:08:20;;;;;;;306.00;78.88;;;;;;;;;;5079317;28;20196;-74
2023/01/20 09:10:56;;;;;;;302.75;69.38;;;;;;;;;;5094844;28;20201;-73
2023/01/20 09:13:24;;;;;;;297.55;76.07;;;;;;;;;;5095035;28;20271;-73
2023/01/20 09:15:55;;;;;;;291.90;69.15;;;;;;;;;;5095761;28;20584;-75
2023/01/20 09:18:24;;;;;;;303.27;76.30;;;;;;;;;;5094939;28;20204;-74
2023/01/20 09:21:07;;;;;;;302.98;73.90;;;;;;;;;;5082452;28;20261;-73
2023/01/20 09:23:35;;;;;;;297.63;73.88;;;;;;;;;;5093872;28;20201;-74
2023/01/20 09:28:56;;;;;;;315.67;77.03;;;;;;;;;;5083814;28;20193;-73
2023/01/20 09:31:38;;;;;;;288.58;70.80;;;;;;;;;;5091282;28;20220;-73
2023/01/20 09:34:09;;;;;;;313.80;81.03;;;;;;;;;;5099825;28;20251;-73
2023/01/20 09:36:38;;;;;;;289.45;73.85;;;;;;;;;;5092043;28;20262;-73
2023/01/20 09:45:10;;;;;;;296.63;74.15;;;;;;;;;;5082396;28;20476;-74
2023/01/20 09:47:41;;;;;;;301.20;82.28;;;;;;;;;;5096032;28;20305;-74
2023/01/20 09:53:14;;;;;;;308.17;75.13;;;;;;;;;;5095699;28;20213;-73
2023/01/20 09:55:45;;;;;;;310.60;77.30;;;;;;;;;;5097525;28;20649;-74
2023/01/20 09:58:38;;;;;;;306.08;71.63;;;;;;;;;;5096786;28;20193;-72
2023/01/20 10:01:23;;;;;;;301.08;71.70;;;;;;;;;;5097454;28;20628;-72
2023/01/20 10:03:57;;;;;;;297.38;72.85;;;;;;;;;;5098369;28;20527;-74
2023/01/20 10:06:33;;;;;;;297.88;70.63;;;;;;;;;;5094997;28;20732;-74
2023/01/20 10:09:05;;;;;;;303.17;72.50;;;;;;;;;;5085899;28;20198;-73
2023/01/20 10:11:39;;;;;;;304.63;73.78;;;;;;;;;;5096680;28;20198;-74
2023/01/20 10:14:13;;;;;;;295.52;69.72;;;;;;;;;;5098820;28;20289;-72
2023/01/20 10:16:56;;;;;;;302.75;76.25;;;;;;;;;;5098005;28;20544;-73
2023/01/20 10:19:33;;;;;;;285.77;67.90;;;;;;;;;;5098362;28;20198;-73
2023/01/20 10:25:18;;;;;;;297.13;73.80;;;;;;;;;;5091258;28;20206;-72
2023/01/20 10:27:50;;;;;;;307.13;72.40;;;;;;;;;;5097349;28;20270;-72
2023/01/20 10:33:26;;;;;;;301.63;73.78;;;;;;;;;;5073941;28;20554;-72
2023/01/20 10:35:59;;;;;;;313.42;76.75;;;;;;;;;;5093320;28;20198;-74
2023/01/20 10:38:37;;;;;;;307.85;75.28;;;;;;;;;;5097356;28;20267;-72
2023/01/20 10:41:36;;;;;;;308.40;72.07;;;;;;;;;;5083359;28;20198;-72
2023/01/20 10:44:18;;;;;;;295.45;70.93;;;;;;;;;;5094569;28;20209;-73
2023/01/20 10:47:06;;;;;;;303.05;70.45;;;;;;;;;;5096338;28;20208;-73
2023/01/20 10:52:49;;;;;;;303.45;76.90;;;;;;;;;;5094318;28;20232;-72
2023/01/20 10:55:22;;;;;;;309.42;78.82;;;;;;;;;;5090055;28;20198;-72
2023/01/20 10:58:01;;;;;;;312.83;85.57;;;;;;;;;;5093000;28;20246;-72
2023/01/20 11:00:30;;;;;;;304.10;73.82;;;;;;;;;;5092938;28;20213;-73
2023/01/20 11:03:12;;;;;;;305.23;74.60;;;;;;;;;;5095775;28;20263;-73
2023/01/20 11:05:54;;;;;;;311.95;77.72;;;;;;;;;;5093933;28;20232;-72
2023/01/20 11:08:23;;;;;;;304.30;77.88;;;;;;;;;;5092890;28;20202;-72
2023/01/20 11:10:57;;;;;;;299.98;77.43;;;;;;;;;;5103236;28;20228;-72
2023/01/20 11:13:25;;;;;;;294.65;66.15;;;;;;;;;;5110713;28;20244;-72
2023/01/20 11:15:55;;;;;;;311.35;77.63;;;;;;;;;;5097014;28;20511;-73
2023/01/20 11:18:37;;;;;;;311.00;72.22;;;;;;;;;;5093268;28;20205;-72
2023/01/20 11:24:28;;;;;;;310.30;78.57;;;;;;;;;;5073586;28;20198;-73
2023/01/20 11:27:03;;;;;;;306.83;75.28;;;;;;;;;;5088858;28;20205;-74
2023/01/20 11:29:35;;;;;;;309.48;77.68;;;;;;;;;;5098559;28;20325;-74
2023/01/20 11:32:08;;;;;;;299.02;73.90;;;;;;;;;;5116469;28;20196;-73
2023/01/20 11:34:54;;;;;;;304.58;70.32;;;;;;;;;;5096629;28;20585;-74
2023/01/20 11:37:30;;;;;;;304.70;73.53;;;;;;;;;;5093883;28;20318;-74
2023/01/20 11:40:00;;;;;;;297.42;74.10;;;;;;;;;;5097556;28;20266;-73
2023/01/20 11:42:45;;;;;;;311.50;74.00;;;;;;;;;;5095255;28;20223;-74
2023/01/20 11:45:38;;;;;;;292.50;68.43;;;;;;;;;;5088290;28;20206;-73
2023/01/20 11:48:20;;;;;;;310.30;76.57;;;;;;;;;;5076299;28;20210;-74
2023/01/20 11:51:04;;;;;;;310.23;74.03;;;;;;;;;;5093043;28;20209;-73
2023/01/20 11:53:33;;;;;;;310.00;73.05;;;;;;;;;;5093329;28;20229;-73
2023/01/20 11:56:06;;;;;;;307.83;74.70;;;;;;;;;;5090965;28;20605;-73
2023/01/20 11:58:51;;;;;;;317.98;76.47;;;;;;;;;;5084506;28;20516;-73
2023/01/20 12:01:35;;;;;;;316.33;78.18;;;;;;;;;;5087352;28;20202;-74
2023/01/20 12:04:24;;;;;;;316.15;78.00;;;;;;;;;;5087339;28;20201;-72
2023/01/20 12:06:56;;;;;;;318.35;82.05;;;;;;;;;;5095018;28;20198;-71
2023/01/20 12:09:26;;;;;;;306.52;68.63;;;;;;;;;;5094776;28;20213;-74
2023/01/20 12:11:56;;;;;;;307.02;71.20;;;;;;;;;;5088528;28;20485;-73
2023/01/20 12:14:28;;;;;;;307.50;70.43;;;;;;;;;;5075329;28;20505;-73
2023/01/20 12:17:16;;;;;;;315.10;78.25;;;;;;;;;;5075909;28;20202;-73
2023/01/20 12:20:01;;;;;;;316.45;78.07;;;;;;;;;;5087209;28;20578;-74
2023/01/20 12:22:35;;;;;;;326.10;96.63;;;;;;;;;;5073057;28;20207;-73
2023/01/20 12:25:13;;;;;;;304.77;77.57;;;;;;;;;;5072668;28;20249;-73
2023/01/20 12:27:52;;;;;;;303.70;71.78;;;;;;;;;;5076268;28;20198;-73
2023/01/20 12:30:29;;;;;;;302.63;69.45;;;;;;;;;;5082568;28;20627;-73
2023/01/20 12:33:05;;;;;;;302.02;71.18;;;;;;;;;;5089924;28;20221;-74
2023/01/20 12:35:43;;;;;;;303.55;72.90;;;;;;;;;;5086454;28;20209;-73
2023/01/20 12:38:24;;;;;;;299.20;73.05;;;;;;;;;;5073559;28;20190;-72
2023/01/20 12:41:01;;;;;;;302.48;72.70;;;;;;;;;;5084323;28;20206;-73
2023/01/20 12:43:51;;;;;;;313.65;76.10;;;;;;;;;;5087193;28;20202;-73
2023/01/20 12:46:45;;;;;;;298.58;72.20;;;;;;;;;;5083556;28;20197;-74
2023/01/20 12:52:11;;;;;;;298.95;73.80;;;;;;;;;;5088962;28;20267;-74
2023/01/20 12:54:53;;;;;;;313.48;77.72;;;;;;;;;;5096367;28;20249;-73
2023/01/20 12:57:32;;;;;;;366.30;126.95;;;;;;;;;;5083895;28;20496;-74
2023/01/20 13:03:05;;;;;;;312.40;77.93;;;;;;;;;;5089980;28;20194;-73
2023/01/20 13:06:08;;;;;;;309.83;74.03;;;;;;;;;;5086565;28;20629;-74
2023/01/20 13:08:54;;;;;;;305.75;75.72;;;;;;;;;;5077701;28;20209;-73
2023/01/20 13:11:42;;;;;;;312.42;80.38;;;;;;;;;;5083359;28;20202;-75
2023/01/20 13:14:16;;;;;;;305.63;71.47;;;;;;;;;;5084696;28;20512;-74
2023/01/20 13:16:48;;;;;;;317.58;75.72;;;;;;;;;;5083552;28;20704;-72
2023/01/20 13:19:19;;;;;;;317.60;78.40;;;;;;;;;;5089824;28;20592;-72
2023/01/20 13:22:09;;;;;;;312.55;77.55;;;;;;;;;;5098613;28;20201;-74
2023/01/20 13:24:47;;;;;;;324.55;79.75;;;;;;;;;;5086270;28;20260;-73
2023/01/20 13:27:31;;;;;;;327.75;79.20;;;;;;;;;;5080096;28;20206;-73
2023/01/20 13:30:08;;;;;;;307.00;71.40;;;;;;;;;;5086669;28;20254;-72
2023/01/20 13:32:39;;;;;;;314.83;73.63;;;;;;;;;;5089338;28;20193;-72
2023/01/20 13:35:21;;;;;;;311.27;70.32;;;;;;;;;;5089980;28;20200;-73
2023/01/20 13:37:56;;;;;;;308.85;72.90;;;;;;;;;;5088650;28;20190;-73
2023/01/20 13:40:44;;;;;;;312.45;73.55;;;;;;;;;;5086181;28;20197;-73
2023/01/20 13:43:28;;;;;;;299.55;68.82;;;;;;;;;;5092071;28;20199;-72
2023/01/20 13:46:27;;;;;;;311.48;72.05;;;;;;;;;;5088954;28;20198;-72
2023/01/20 13:49:17;;;;;;;319.08;75.13;;;;;;;;;;5086921;28;20287;-72
2023/01/20 13:51:45;;;;;;;317.50;77.10;;;;;;;;;;5090968;28;20207;-73
2023/01/20 13:54:34;;;;;;;323.70;80.95;;;;;;;;;;5088768;28;20506;-71
2023/01/20 13:57:23;;;;;;;322.60;74.25;;;;;;;;;;5088048;28;20195;-72
2023/01/20 13:59:58;;;;;;;305.48;75.13;;;;;;;;;;5088696;28;20194;-73
2023/01/20 14:02:57;;;;;;;319.75;77.68;;;;;;;;;;5092517;28;20487;-73
2023/01/20 14:05:38;;;;;;;308.45;71.63;;;;;;;;;;5097134;28;20201;-73
2023/01/20 14:08:19;;;;;;;314.58;73.68;;;;;;;;;;5098821;28;20202;-71
2023/01/20 14:10:50;;;;;;;317.00;77.82;;;;;;;;;;5091676;28;20216;-73
2023/01/20 14:13:26;;;;;;;314.25;72.47;;;;;;;;;;5086079;28;20564;-72
2023/01/20 14:16:09;;;;;;;306.33;72.75;;;;;;;;;;5094852;28;20204;-73
2023/01/20 14:18:49;;;;;;;304.38;71.72;;;;;;;;;;5079839;28;20571;-73
2023/01/20 14:24:25;;;;;;;309.52;72.32;;;;;;;;;;5084510;28;20194;-72
2023/01/20 14:27:08;;;;;;;307.75;70.93;;;;;;;;;;5089373;28;20272;-74
2023/01/20 14:30:09;;;;;;;302.20;73.82;;;;;;;;;;5090229;28;20230;-72
2023/01/20 14:32:37;;;;;;;310.33;76.55;;;;;;;;;;5083750;28;20203;-73
2023/01/20 14:35:14;;;;;;;304.83;73.65;;;;;;;;;;5091533;28;20219;-73
2023/01/20 14:37:55;;;;;;;308.65;71.95;;;;;;;;;;5087650;28;20245;-72
2023/01/20 14:40:25;;;;;;;313.30;74.22;;;;;;;;;;5092463;28;20260;-72
2023/01/20 14:42:57;;;;;;;304.80;70.63;;;;;;;;;;5087168;28;20229;-73
2023/01/20 14:45:29;;;;;;;315.95;77.65;;;;;;;;;;5087092;28;20258;-72
2023/01/20 14:47:57;;;;;;;314.70;73.72;;;;;;;;;;5091038;28;20205;-72
2023/01/20 14:50:38;;;;;;;320.25;78.25;;;;;;;;;;5096493;28;20232;-72
2023/01/20 14:53:13;;;;;;;320.83;73.63;;;;;;;;;;5084073;28;20567;-72
2023/01/20 14:55:47;;;;;;;301.15;72.18;;;;;;;;;;5089251;28;20201;-71
2023/01/20 14:58:29;;;;;;;314.35;77.28;;;;;;;;;;5089586;28;20193;-71
2023/01/20 15:01:15;;;;;;;302.92;72.35;;;;;;;;;;5084977;28;20212;-71
2023/01/20 15:03:52;;;;;;;317.90;73.57;;;;;;;;;;5086935;28;20464;-71
2023/01/20 15:06:26;;;;;;;308.40;74.38;;;;;;;;;;5088358;28;20219;-72
2023/01/20 15:09:13;;;;;;;302.85;70.60;;;;;;;;;;5093347;28;20258;-72
2023/01/20 15:11:45;;;;;;;312.95;78.25;;;;;;;;;;5092484;28;20499;-72